sensor_id;sensor_type;location;lat;lon;timestamp;pressure;altitude;pressure_sealevel;temperature;humidity
82927;BME280;72788;40.218;44.486;2023-12-20T00:01:47;89727.34;;;0.64;44.96
82927;BME280;72788;40.218;44.486;2023-12-20T00:04:13;89726.91;;;0.62;44.70
82927;BME280;72788;40.218;44.486;2023-12-20T00:06:38;89729.03;;;0.60;45.26
82927;BME280;72788;40.218;44.486;2023-12-20T00:09:04;89730.31;;;0.54;44.87
82927;BME280;72788;40.218;44.486;2023-12-20T00:11:29;89728.16;;;0.47;44.95
82927;BME280;72788;40.218;44.486;2023-12-20T00:13:55;89724.81;;;0.47;44.69
82927;BME280;72788;40.218;44.486;2023-12-20T00:16:21;89724.97;;;0.51;44.70
82927;BME280;72788;40.218;44.486;2023-12-20T00:18:46;89715.34;;;0.42;45.02
82927;BME280;72788;40.218;44.486;2023-12-20T00:21:12;89726.84;;;0.33;45.23
82927;BME280;72788;40.218;44.486;2023-12-20T00:23:37;89720.88;;;0.32;45.40
82927;BME280;72788;40.218;44.486;2023-12-20T00:26:03;89711.09;;;0.38;45.26
82927;BME280;72788;40.218;44.486;2023-12-20T00:28:29;89717.19;;;0.42;45.58
82927;BME280;72788;40.218;44.486;2023-12-20T00:30:55;89716.69;;;0.48;45.03
82927;BME280;72788;40.218;44.486;2023-12-20T00:33:20;89708.41;;;0.55;45.09
82927;BME280;72788;40.218;44.486;2023-12-20T00:35:46;89710.53;;;0.62;44.78
82927;BME280;72788;40.218;44.486;2023-12-20T00:38:12;89699.53;;;0.65;44.49
82927;BME280;72788;40.218;44.486;2023-12-20T00:40:37;89697.69;;;0.65;45.07
82927;BME280;72788;40.218;44.486;2023-12-20T00:43:03;89701.06;;;0.66;44.54
82927;BME280;72788;40.218;44.486;2023-12-20T00:45:29;89697.06;;;0.68;45.08
82927;BME280;72788;40.218;44.486;2023-12-20T00:47:54;89690.47;;;0.71;44.47
82927;BME280;72788;40.218;44.486;2023-12-20T00:50:20;89695.06;;;0.74;44.74
82927;BME280;72788;40.218;44.486;2023-12-20T00:52:47;89684.47;;;0.79;44.52
82927;BME280;72788;40.218;44.486;2023-12-20T00:55:13;89685.56;;;0.78;44.53
82927;BME280;72788;40.218;44.486;2023-12-20T00:57:39;89683.13;;;0.73;44.56
82927;BME280;72788;40.218;44.486;2023-12-20T01:00:05;89675.75;;;0.75;44.08
82927;BME280;72788;40.218;44.486;2023-12-20T01:02:31;89678.94;;;0.80;44.16
82927;BME280;72788;40.218;44.486;2023-12-20T01:04:57;89690.13;;;0.81;44.11
82927;BME280;72788;40.218;44.486;2023-12-20T01:07:22;89677.56;;;0.83;44.16
82927;BME280;72788;40.218;44.486;2023-12-20T01:09:48;89688.97;;;0.90;44.14
82927;BME280;72788;40.218;44.486;2023-12-20T01:12:14;89682.72;;;0.91;44.58
82927;BME280;72788;40.218;44.486;2023-12-20T01:14:40;89680.25;;;0.95;44.36
82927;BME280;72788;40.218;44.486;2023-12-20T01:17:06;89680.25;;;0.95;43.69
82927;BME280;72788;40.218;44.486;2023-12-20T01:19:31;89677.22;;;0.93;43.92
82927;BME280;72788;40.218;44.486;2023-12-20T01:21:57;89679.59;;;0.98;44.02
82927;BME280;72788;40.218;44.486;2023-12-20T01:24:23;89676.88;;;0.94;43.66
82927;BME280;72788;40.218;44.486;2023-12-20T01:26:48;89668.84;;;0.79;44.09
82927;BME280;72788;40.218;44.486;2023-12-20T01:29:14;89670.53;;;0.83;44.54
82927;BME280;72788;40.218;44.486;2023-12-20T01:31:41;89689.56;;;0.96;44.55
82927;BME280;72788;40.218;44.486;2023-12-20T01:34:07;89685.44;;;0.95;43.63
82927;BME280;72788;40.218;44.486;2023-12-20T01:36:32;89693.44;;;0.90;44.17
82927;BME280;72788;40.218;44.486;2023-12-20T01:38:58;89689.31;;;0.89;44.43
82927;BME280;72788;40.218;44.486;2023-12-20T01:41:24;89688.38;;;0.93;44.19
82927;BME280;72788;40.218;44.486;2023-12-20T01:43:50;89686.53;;;0.94;44.41
82927;BME280;72788;40.218;44.486;2023-12-20T01:46:16;89684.69;;;0.94;44.02
82927;BME280;72788;40.218;44.486;2023-12-20T01:48:42;89688.50;;;0.97;44.14
82927;BME280;72788;40.218;44.486;2023-12-20T01:51:08;89695.38;;;1.02;44.36
82927;BME280;72788;40.218;44.486;2023-12-20T01:53:35;89700.88;;;1.00;44.00
82927;BME280;72788;40.218;44.486;2023-12-20T01:56:01;89696.88;;;1.03;44.10
82927;BME280;72788;40.218;44.486;2023-12-20T01:58:27;89696.31;;;0.97;44.04
82927;BME280;72788;40.218;44.486;2023-12-20T02:00:53;89703.09;;;0.89;43.93
82927;BME280;72788;40.218;44.486;2023-12-20T02:03:20;89710.88;;;0.89;44.29
82927;BME280;72788;40.218;44.486;2023-12-20T02:05:46;89703.38;;;0.88;44.30
82927;BME280;72788;40.218;44.486;2023-12-20T02:08:13;89705.09;;;0.84;44.36
82927;BME280;72788;40.218;44.486;2023-12-20T02:10:39;89711.97;;;0.88;44.05
82927;BME280;72788;40.218;44.486;2023-12-20T02:13:06;89715.06;;;0.82;43.44
82927;BME280;72788;40.218;44.486;2023-12-20T02:15:31;89715.53;;;0.75;43.74
82927;BME280;72788;40.218;44.486;2023-12-20T02:17:57;89715.56;;;0.67;44.23
82927;BME280;72788;40.218;44.486;2023-12-20T02:20:23;89713.81;;;0.50;43.31
82927;BME280;72788;40.218;44.486;2023-12-20T02:22:48;89712.00;;;0.42;44.85
82927;BME280;72788;40.218;44.486;2023-12-20T02:25:14;89706.94;;;0.45;44.30
82927;BME280;72788;40.218;44.486;2023-12-20T02:27:40;89716.06;;;0.52;44.59
82927;BME280;72788;40.218;44.486;2023-12-20T02:30:06;89716.84;;;0.52;44.13
82927;BME280;72788;40.218;44.486;2023-12-20T02:32:32;89713.81;;;0.50;44.33
82927;BME280;72788;40.218;44.486;2023-12-20T02:34:58;89711.97;;;0.51;44.33
82927;BME280;72788;40.218;44.486;2023-12-20T02:37:24;89718.41;;;0.36;44.15
82927;BME280;72788;40.218;44.486;2023-12-20T02:39:50;89724.59;;;0.23;44.35
82927;BME280;72788;40.218;44.486;2023-12-20T02:42:15;89716.31;;;0.21;44.27
82927;BME280;72788;40.218;44.486;2023-12-20T02:44:41;89717.38;;;0.20;44.60
82927;BME280;72788;40.218;44.486;2023-12-20T02:47:07;89719.19;;;0.28;45.29
82927;BME280;72788;40.218;44.486;2023-12-20T02:49:32;89714.63;;;0.25;44.26
82927;BME280;72788;40.218;44.486;2023-12-20T02:51:58;89726.84;;;0.24;45.15
82927;BME280;72788;40.218;44.486;2023-12-20T02:54:23;89726.72;;;0.21;45.04
82927;BME280;72788;40.218;44.486;2023-12-20T02:56:49;89723.19;;;0.25;44.61
82927;BME280;72788;40.218;44.486;2023-12-20T02:59:15;89729.31;;;0.21;43.94
82927;BME280;72788;40.218;44.486;2023-12-20T03:01:44;89727.63;;;0.16;44.48
82927;BME280;72788;40.218;44.486;2023-12-20T03:04:11;89735.91;;;0.10;44.08
82927;BME280;72788;40.218;44.486;2023-12-20T03:06:37;89741.38;;;0.17;44.86
82927;BME280;72788;40.218;44.486;2023-12-20T03:09:03;89733.44;;;0.22;44.19
82927;BME280;72788;40.218;44.486;2023-12-20T03:11:28;89740.94;;;0.23;43.91
82927;BME280;72788;40.218;44.486;2023-12-20T03:13:55;89734.97;;;0.23;44.40
82927;BME280;72788;40.218;44.486;2023-12-20T03:16:21;89736.66;;;0.27;44.49
82927;BME280;72788;40.218;44.486;2023-12-20T03:18:46;89733.09;;;0.32;44.30
82927;BME280;72788;40.218;44.486;2023-12-20T03:21:12;89737.38;;;0.36;43.97
82927;BME280;72788;40.218;44.486;2023-12-20T03:23:38;89738.16;;;0.28;44.07
82927;BME280;72788;40.218;44.486;2023-12-20T03:26:07;89738.34;;;0.23;44.52
82927;BME280;72788;40.218;44.486;2023-12-20T03:28:33;89730.69;;;0.18;44.45
82927;BME280;72788;40.218;44.486;2023-12-20T03:30:59;89737.59;;;0.14;45.44
82927;BME280;72788;40.218;44.486;2023-12-20T03:33:25;89738.34;;;0.23;44.28
82927;BME280;72788;40.218;44.486;2023-12-20T03:35:51;89740.59;;;0.25;44.46
82927;BME280;72788;40.218;44.486;2023-12-20T03:38:16;89743.84;;;0.22;44.31
82927;BME280;72788;40.218;44.486;2023-12-20T03:40:42;89745.22;;;0.19;44.17
82927;BME280;72788;40.218;44.486;2023-12-20T03:43:08;89740.75;;;0.20;44.06
82927;BME280;72788;40.218;44.486;2023-12-20T03:45:33;89751.16;;;0.20;44.39
82927;BME280;72788;40.218;44.486;2023-12-20T03:47:59;89742.63;;;0.19;44.20
82927;BME280;72788;40.218;44.486;2023-12-20T03:50:28;89743.69;;;0.18;44.53
82927;BME280;72788;40.218;44.486;2023-12-20T03:52:54;89744.59;;;0.22;43.94
82927;BME280;72788;40.218;44.486;2023-12-20T03:55:20;89750.38;;;0.28;44.83
82927;BME280;72788;40.218;44.486;2023-12-20T03:57:45;89757.09;;;0.29;44.17
82927;BME280;72788;40.218;44.486;2023-12-20T04:00:11;89756.22;;;0.16;44.03
82927;BME280;72788;40.218;44.486;2023-12-20T04:02:38;89755.78;;;0.06;44.02
82927;BME280;72788;40.218;44.486;2023-12-20T04:05:04;89748.75;;;-0.03;44.30
82927;BME280;72788;40.218;44.486;2023-12-20T04:07:30;89747.97;;;-0.03;44.84
82927;BME280;72788;40.218;44.486;2023-12-20T04:09:56;89753.66;;;-0.01;44.36
82927;BME280;72788;40.218;44.486;2023-12-20T04:12:21;89755.00;;;-0.04;44.35
82927;BME280;72788;40.218;44.486;2023-12-20T04:14:47;89753.34;;;-0.08;44.69
82927;BME280;72788;40.218;44.486;2023-12-20T04:17:13;89758.38;;;-0.03;44.60
82927;BME280;72788;40.218;44.486;2023-12-20T04:19:41;89758.84;;;-0.01;44.81
82927;BME280;72788;40.218;44.486;2023-12-20T04:22:07;89764.47;;;0.01;44.73
82927;BME280;72788;40.218;44.486;2023-12-20T04:24:33;89767.53;;;0.03;44.28
82927;BME280;72788;40.218;44.486;2023-12-20T04:26:58;89764.31;;;0.06;44.64
82927;BME280;72788;40.218;44.486;2023-12-20T04:29:24;89768.44;;;0.16;44.78
82927;BME280;72788;40.218;44.486;2023-12-20T04:31:50;89769.66;;;0.10;44.20
82927;BME280;72788;40.218;44.486;2023-12-20T04:34:17;89768.91;;;0.09;44.32
82927;BME280;72788;40.218;44.486;2023-12-20T04:36:43;89770.13;;;0.12;44.92
82927;BME280;72788;40.218;44.486;2023-12-20T04:39:10;89763.69;;;0.18;44.33
82927;BME280;72788;40.218;44.486;2023-12-20T04:41:35;89770.25;;;0.24;44.41
82927;BME280;72788;40.218;44.486;2023-12-20T04:44:01;89775.28;;;0.29;44.18
82927;BME280;72788;40.218;44.486;2023-12-20T04:46:27;89771.34;;;0.31;43.90
82927;BME280;72788;40.218;44.486;2023-12-20T04:48:53;89784.13;;;0.36;43.57
82927;BME280;72788;40.218;44.486;2023-12-20T04:51:18;89782.00;;;0.38;43.62
82927;BME280;72788;40.218;44.486;2023-12-20T04:53:44;89786.28;;;0.43;43.65
82927;BME280;72788;40.218;44.486;2023-12-20T04:56:10;89783.22;;;0.50;43.86
82927;BME280;72788;40.218;44.486;2023-12-20T04:58:35;89776.16;;;0.59;44.33
82927;BME280;72788;40.218;44.486;2023-12-20T05:01:01;89779.81;;;0.66;43.37
82927;BME280;72788;40.218;44.486;2023-12-20T05:03:27;89775.97;;;0.64;43.77
82927;BME280;72788;40.218;44.486;2023-12-20T05:05:52;89794.31;;;0.67;43.36
82927;BME280;72788;40.218;44.486;2023-12-20T05:08:18;89789.25;;;0.71;43.90
82927;BME280;72788;40.218;44.486;2023-12-20T05:10:44;89791.06;;;0.79;43.15
82927;BME280;72788;40.218;44.486;2023-12-20T05:13:09;89790.91;;;0.75;43.18
82927;BME280;72788;40.218;44.486;2023-12-20T05:15:35;89790.00;;;0.80;43.48
82927;BME280;72788;40.218;44.486;2023-12-20T05:18:00;89801.28;;;0.92;43.50
82927;BME280;72788;40.218;44.486;2023-12-20T05:20:26;89807.69;;;0.95;43.40
82927;BME280;72788;40.218;44.486;2023-12-20T05:22:52;89805.38;;;1.02;43.12
82927;BME280;72788;40.218;44.486;2023-12-20T05:25:17;89797.38;;;1.07;43.23
82927;BME280;72788;40.218;44.486;2023-12-20T05:27:44;89800.09;;;1.19;42.89
82927;BME280;72788;40.218;44.486;2023-12-20T05:30:10;89800.56;;;1.21;42.96
82927;BME280;72788;40.218;44.486;2023-12-20T05:32:36;89804.53;;;1.19;42.84
82927;BME280;72788;40.218;44.486;2023-12-20T05:35:01;89804.53;;;1.19;43.13
82927;BME280;72788;40.218;44.486;2023-12-20T05:37:28;89811.13;;;1.16;43.17
82927;BME280;72788;40.218;44.486;2023-12-20T05:39:54;89807.28;;;1.22;42.78
82927;BME280;72788;40.218;44.486;2023-12-20T05:42:19;89805.91;;;1.25;43.02
82927;BME280;72788;40.218;44.486;2023-12-20T05:44:45;89807.06;;;1.36;43.42
82927;BME280;72788;40.218;44.486;2023-12-20T05:47:11;89819.53;;;1.51;43.10
82927;BME280;72788;40.218;44.486;2023-12-20T05:49:36;89816.75;;;1.56;42.88
82927;BME280;72788;40.218;44.486;2023-12-20T05:52:02;89811.19;;;1.66;43.28
82927;BME280;72788;40.218;44.486;2023-12-20T05:54:28;89812.28;;;1.86;43.06
82927;BME280;72788;40.218;44.486;2023-12-20T05:56:53;89808.03;;;2.02;42.34
82927;BME280;72788;40.218;44.486;2023-12-20T05:59:20;89809.69;;;2.07;42.04
82927;BME280;72788;40.218;44.486;2023-12-20T06:01:46;89806.56;;;2.13;42.70
82927;BME280;72788;40.218;44.486;2023-12-20T06:04:11;89813.81;;;2.28;42.44
82927;BME280;72788;40.218;44.486;2023-12-20T06:06:41;89822.13;;;2.43;42.41
82927;BME280;72788;40.218;44.486;2023-12-20T06:09:07;89822.03;;;2.51;42.48
82927;BME280;72788;40.218;44.486;2023-12-20T06:11:33;89818.03;;;2.54;42.67
82927;BME280;72788;40.218;44.486;2023-12-20T06:13:59;89818.16;;;2.57;42.56
82927;BME280;72788;40.218;44.486;2023-12-20T06:16:25;89820.69;;;2.66;42.04
82927;BME280;72788;40.218;44.486;2023-12-20T06:18:50;89828.00;;;2.72;42.50
82927;BME280;72788;40.218;44.486;2023-12-20T06:21:16;89821.28;;;2.83;42.62
82927;BME280;72788;40.218;44.486;2023-12-20T06:23:42;89822.84;;;2.97;41.87
82927;BME280;72788;40.218;44.486;2023-12-20T06:26:07;89822.00;;;3.05;42.22
82927;BME280;72788;40.218;44.486;2023-12-20T06:28:33;89815.56;;;3.14;42.57
82927;BME280;72788;40.218;44.486;2023-12-20T06:30:59;89820.06;;;3.26;42.44
82927;BME280;72788;40.218;44.486;2023-12-20T06:33:26;89822.56;;;3.34;42.34
82927;BME280;72788;40.218;44.486;2023-12-20T06:35:52;89818.97;;;3.39;41.52
82927;BME280;72788;40.218;44.486;2023-12-20T06:38:18;89823.34;;;3.47;42.03
82927;BME280;72788;40.218;44.486;2023-12-20T06:40:44;89824.63;;;3.65;42.72
82927;BME280;72788;40.218;44.486;2023-12-20T06:43:11;89825.41;;;3.78;41.13
82927;BME280;72788;40.218;44.486;2023-12-20T06:45:37;89817.13;;;3.88;41.23
82927;BME280;72788;40.218;44.486;2023-12-20T06:48:03;89817.00;;;3.97;42.15
82927;BME280;72788;40.218;44.486;2023-12-20T06:50:29;89821.03;;;4.06;40.73
82927;BME280;72788;40.218;44.486;2023-12-20T06:52:54;89814.34;;;4.09;40.73
82927;BME280;72788;40.218;44.486;2023-12-20T06:55:20;89813.84;;;4.03;41.57
82927;BME280;72788;40.218;44.486;2023-12-20T06:57:45;89821.69;;;4.03;40.98
82927;BME280;72788;40.218;44.486;2023-12-20T07:00:11;89811.53;;;4.02;40.62
82927;BME280;72788;40.218;44.486;2023-12-20T07:02:38;89816.78;;;4.02;40.88
82927;BME280;72788;40.218;44.486;2023-12-20T07:05:04;89818.94;;;4.12;41.98
82927;BME280;72788;40.218;44.486;2023-12-20T07:07:29;89820.34;;;4.21;41.10
82927;BME280;72788;40.218;44.486;2023-12-20T07:09:55;89818.69;;;4.29;40.79
82927;BME280;72788;40.218;44.486;2023-12-20T07:12:21;89823.16;;;4.28;41.02
82927;BME280;72788;40.218;44.486;2023-12-20T07:14:47;89822.06;;;4.29;41.66
82927;BME280;72788;40.218;44.486;2023-12-20T07:17:13;89819.72;;;4.40;41.83
82927;BME280;72788;40.218;44.486;2023-12-20T07:19:41;89814.81;;;4.51;40.92
82927;BME280;72788;40.218;44.486;2023-12-20T07:22:07;89813.88;;;4.59;40.97
82927;BME280;72788;40.218;44.486;2023-12-20T07:24:34;89810.19;;;4.60;40.29
82927;BME280;72788;40.218;44.486;2023-12-20T07:27:03;89805.56;;;4.69;40.91
82927;BME280;72788;40.218;44.486;2023-12-20T07:29:28;89812.63;;;4.81;41.22
82927;BME280;72788;40.218;44.486;2023-12-20T07:31:54;89806.13;;;4.90;40.78
82927;BME280;72788;40.218;44.486;2023-12-20T07:34:20;89811.09;;;4.80;40.39
82927;BME280;72788;40.218;44.486;2023-12-20T07:36:46;89805.00;;;4.75;40.39
82927;BME280;72788;40.218;44.486;2023-12-20T07:39:12;89804.44;;;4.82;40.30
82927;BME280;72788;40.218;44.486;2023-12-20T07:41:38;89788.47;;;4.87;41.08
82927;BME280;72788;40.218;44.486;2023-12-20T07:44:04;89796.19;;;4.96;40.86
82927;BME280;72788;40.218;44.486;2023-12-20T07:46:30;89792.66;;;5.04;39.57
82927;BME280;72788;40.218;44.486;2023-12-20T07:48:55;89789.09;;;5.12;40.28
82927;BME280;72788;40.218;44.486;2023-12-20T07:51:21;89784.38;;;5.17;40.23
82927;BME280;72788;40.218;44.486;2023-12-20T07:53:48;89784.63;;;5.12;39.52
82927;BME280;72788;40.218;44.486;2023-12-20T07:56:18;89790.69;;;5.01;39.76
82927;BME280;72788;40.218;44.486;2023-12-20T07:58:44;89779.38;;;4.97;40.45
82927;BME280;72788;40.218;44.486;2023-12-20T08:01:11;89778.69;;;5.00;40.59
82927;BME280;72788;40.218;44.486;2023-12-20T08:03:37;89775.84;;;5.05;40.65
82927;BME280;72788;40.218;44.486;2023-12-20T08:06:03;89772.38;;;5.16;39.93
82927;BME280;72788;40.218;44.486;2023-12-20T08:08:30;89762.75;;;5.20;40.65
82927;BME280;72788;40.218;44.486;2023-12-20T08:10:55;89760.22;;;5.24;40.50
82927;BME280;72788;40.218;44.486;2023-12-20T08:13:23;89759.88;;;5.25;40.57
82927;BME280;72788;40.218;44.486;2023-12-20T08:15:51;89752.78;;;5.26;40.23
82927;BME280;72788;40.218;44.486;2023-12-20T08:18:17;89751.28;;;5.25;40.53
82927;BME280;72788;40.218;44.486;2023-12-20T08:20:43;89743.13;;;5.30;40.42
82927;BME280;72788;40.218;44.486;2023-12-20T08:23:08;89742.22;;;5.38;40.78
82927;BME280;72788;40.218;44.486;2023-12-20T08:25:34;89742.91;;;5.35;41.08
82927;BME280;72788;40.218;44.486;2023-12-20T08:28:02;89738.50;;;5.23;41.38
82927;BME280;72788;40.218;44.486;2023-12-20T08:30:28;89740.97;;;5.16;41.19
82927;BME280;72788;40.218;44.486;2023-12-20T08:32:55;89738.25;;;5.13;40.63
82927;BME280;72788;40.218;44.486;2023-12-20T08:35:20;89726.50;;;5.07;41.24
82927;BME280;72788;40.218;44.486;2023-12-20T08:37:46;89734.53;;;5.14;40.91
82927;BME280;72788;40.218;44.486;2023-12-20T08:40:12;89720.59;;;5.10;41.64
82927;BME280;72788;40.218;44.486;2023-12-20T08:42:37;89727.19;;;5.19;41.09
82927;BME280;72788;40.218;44.486;2023-12-20T08:45:03;89722.78;;;5.23;40.87
82927;BME280;72788;40.218;44.486;2023-12-20T08:47:29;89720.94;;;5.24;41.16
82927;BME280;72788;40.218;44.486;2023-12-20T08:49:55;89714.59;;;5.25;41.10
82927;BME280;72788;40.218;44.486;2023-12-20T08:52:23;89707.31;;;5.34;41.56
82927;BME280;72788;40.218;44.486;2023-12-20T08:54:50;89700.22;;;5.35;40.93
82927;BME280;72788;40.218;44.486;2023-12-20T08:57:20;89707.66;;;5.33;40.27
82927;BME280;72788;40.218;44.486;2023-12-20T08:59:47;89716.69;;;5.35;40.93
82927;BME280;72788;40.218;44.486;2023-12-20T09:02:14;89700.66;;;5.37;40.32
82927;BME280;72788;40.218;44.486;2023-12-20T09:04:39;89704.69;;;5.34;40.54
82927;BME280;72788;40.218;44.486;2023-12-20T09:07:05;89700.28;;;5.38;40.44
82927;BME280;72788;40.218;44.486;2023-12-20T09:09:31;89695.91;;;5.42;40.85
82927;BME280;72788;40.218;44.486;2023-12-20T09:11:58;89688.09;;;5.46;40.33
82927;BME280;72788;40.218;44.486;2023-12-20T09:14:23;89694.53;;;5.48;40.75
82927;BME280;72788;40.218;44.486;2023-12-20T09:16:49;89684.47;;;5.50;41.11
82927;BME280;72788;40.218;44.486;2023-12-20T09:19:17;89678.22;;;5.55;40.95
82927;BME280;72788;40.218;44.486;2023-12-20T09:21:43;89676.44;;;5.59;40.66
82927;BME280;72788;40.218;44.486;2023-12-20T09:24:09;89674.31;;;5.64;40.90
82927;BME280;72788;40.218;44.486;2023-12-20T09:26:34;89666.59;;;5.71;40.20
82927;BME280;72788;40.218;44.486;2023-12-20T09:29:00;89670.88;;;5.80;39.84
82927;BME280;72788;40.218;44.486;2023-12-20T09:31:26;89664.19;;;5.82;39.87
82927;BME280;72788;40.218;44.486;2023-12-20T09:33:52;89661.31;;;5.87;40.29
82927;BME280;72788;40.218;44.486;2023-12-20T09:36:17;89654.75;;;5.97;39.69
82927;BME280;72788;40.218;44.486;2023-12-20T09:38:43;89658.97;;;6.01;39.83
82927;BME280;72788;40.218;44.486;2023-12-20T09:41:09;89660.06;;;6.00;40.28
82927;BME280;72788;40.218;44.486;2023-12-20T09:43:37;89650.75;;;6.03;40.27
82927;BME280;72788;40.218;44.486;2023-12-20T09:46:06;89653.53;;;6.10;39.58
82927;BME280;72788;40.218;44.486;2023-12-20T09:48:33;89648.41;;;6.17;39.81
82927;BME280;72788;40.218;44.486;2023-12-20T09:50:59;89652.34;;;6.07;39.19
82927;BME280;72788;40.218;44.486;2023-12-20T09:53:25;89643.31;;;6.05;39.56
82927;BME280;72788;40.218;44.486;2023-12-20T09:56:00;89642.91;;;6.03;39.00
82927;BME280;72788;40.218;44.486;2023-12-20T09:58:27;89630.31;;;6.12;39.88
82927;BME280;72788;40.218;44.486;2023-12-20T10:00:53;89630.03;;;6.17;39.58
82927;BME280;72788;40.218;44.486;2023-12-20T10:03:25;89640.88;;;6.15;39.43
82927;BME280;72788;40.218;44.486;2023-12-20T10:05:57;89641.09;;;6.26;39.07
82927;BME280;72788;40.218;44.486;2023-12-20T10:08:24;89635.25;;;6.36;40.07
82927;BME280;72788;40.218;44.486;2023-12-20T10:10:50;89628.16;;;6.37;39.38
82927;BME280;72788;40.218;44.486;2023-12-20T10:13:15;89627.06;;;6.38;38.85
82927;BME280;72788;40.218;44.486;2023-12-20T10:15:41;89627.44;;;6.40;39.79
82927;BME280;72788;40.218;44.486;2023-12-20T10:18:07;89621.44;;;6.39;39.15
82927;BME280;72788;40.218;44.486;2023-12-20T10:20:33;89624.59;;;6.48;39.64
82927;BME280;72788;40.218;44.486;2023-12-20T10:23:00;89611.91;;;6.50;39.53
82927;BME280;72788;40.218;44.486;2023-12-20T10:25:26;89601.88;;;6.56;39.47
82927;BME280;72788;40.218;44.486;2023-12-20T10:28:25;89610.97;;;6.62;38.21
82927;BME280;72788;40.218;44.486;2023-12-20T10:30:54;89600.88;;;6.64;38.55
82927;BME280;72788;40.218;44.486;2023-12-20T10:33:27;89608.84;;;6.71;38.88
82927;BME280;72788;40.218;44.486;2023-12-20T10:36:00;89603.66;;;6.75;38.40
82927;BME280;72788;40.218;44.486;2023-12-20T10:38:26;89601.03;;;6.75;39.36
82927;BME280;72788;40.218;44.486;2023-12-20T10:40:57;89593.09;;;6.71;38.78
82927;BME280;72788;40.218;44.486;2023-12-20T10:43:27;89593.88;;;6.72;39.50
82927;BME280;72788;40.218;44.486;2023-12-20T10:45:54;89596.44;;;6.68;38.81
82927;BME280;72788;40.218;44.486;2023-12-20T10:48:20;89598.31;;;6.68;38.83
82927;BME280;72788;40.218;44.486;2023-12-20T10:50:47;89597.91;;;6.65;39.37
82927;BME280;72788;40.218;44.486;2023-12-20T10:53:15;89589.00;;;6.70;39.38
82927;BME280;72788;40.218;44.486;2023-12-20T10:55:43;89590.16;;;6.73;39.27
82927;BME280;72788;40.218;44.486;2023-12-20T10:58:10;89588.63;;;6.72;38.95
82927;BME280;72788;40.218;44.486;2023-12-20T11:00:40;89592.44;;;6.74;39.35
82927;BME280;72788;40.218;44.486;2023-12-20T11:03:11;89592.06;;;6.76;39.15
82927;BME280;72788;40.218;44.486;2023-12-20T11:05:52;89590.53;;;6.75;38.90
82927;BME280;72788;40.218;44.486;2023-12-20T11:08:33;89590.31;;;6.83;39.27
82927;BME280;72788;40.218;44.486;2023-12-20T11:11:10;89582.94;;;6.92;39.27
82927;BME280;72788;40.218;44.486;2023-12-20T11:13:47;89581.38;;;6.88;38.48
82927;BME280;72788;40.218;44.486;2023-12-20T11:16:19;89591.31;;;6.75;39.45
82927;BME280;72788;40.218;44.486;2023-12-20T11:18:45;89595.78;;;6.75;40.01
82927;BME280;72788;40.218;44.486;2023-12-20T11:21:10;89590.66;;;6.82;39.10
82927;BME280;72788;40.218;44.486;2023-12-20T11:23:36;89595.59;;;6.87;39.94
82927;BME280;72788;40.218;44.486;2023-12-20T11:26:02;89586.34;;;6.93;39.49
82927;BME280;72788;40.218;44.486;2023-12-20T11:28:28;89587.44;;;6.92;39.01
82927;BME280;72788;40.218;44.486;2023-12-20T11:30:58;89584.88;;;6.95;39.24
82927;BME280;72788;40.218;44.486;2023-12-20T11:33:35;89589.31;;;6.91;39.00
82927;BME280;72788;40.218;44.486;2023-12-20T11:36:01;89599.03;;;6.91;39.31
82927;BME280;72788;40.218;44.486;2023-12-20T11:38:36;89595.28;;;6.88;38.93
82927;BME280;72788;40.218;44.486;2023-12-20T11:41:05;89587.78;;;6.90;39.44
82927;BME280;72788;40.218;44.486;2023-12-20T11:43:39;89592.63;;;6.88;38.82
82927;BME280;72788;40.218;44.486;2023-12-20T11:46:05;89593.44;;;6.92;39.13
82927;BME280;72788;40.218;44.486;2023-12-20T11:48:32;89594.97;;;6.93;39.21
82927;BME280;72788;40.218;44.486;2023-12-20T11:50:58;89590.50;;;6.94;39.08
82927;BME280;72788;40.218;44.486;2023-12-20T11:53:24;89593.44;;;6.92;39.06
82927;BME280;72788;40.218;44.486;2023-12-20T11:55:50;89593.75;;;6.87;38.94
82927;BME280;72788;40.218;44.486;2023-12-20T11:58:15;89588.91;;;6.89;39.01
82927;BME280;72788;40.218;44.486;2023-12-20T12:00:42;89593.41;;;6.89;38.94
82927;BME280;72788;40.218;44.486;2023-12-20T12:03:08;89586.22;;;6.86;38.93
82927;BME280;72788;40.218;44.486;2023-12-20T12:05:34;89590.72;;;6.85;39.06
82927;BME280;72788;40.218;44.486;2023-12-20T12:08:01;89587.34;;;6.85;39.66
82927;BME280;72788;40.218;44.486;2023-12-20T12:10:27;89590.72;;;6.85;38.98
82927;BME280;72788;40.218;44.486;2023-12-20T12:12:53;89582.78;;;6.82;39.18
82927;BME280;72788;40.218;44.486;2023-12-20T12:15:19;89580.78;;;6.75;39.25
82927;BME280;72788;40.218;44.486;2023-12-20T12:17:52;89584.19;;;6.76;39.12
82927;BME280;72788;40.218;44.486;2023-12-20T12:20:20;89578.59;;;6.77;39.48
82927;BME280;72788;40.218;44.486;2023-12-20T12:22:46;89571.47;;;6.78;38.93
82927;BME280;72788;40.218;44.486;2023-12-20T12:25:16;89576.31;;;6.76;39.53
82927;BME280;72788;40.218;44.486;2023-12-20T12:27:42;89567.56;;;6.68;39.08
82927;BME280;72788;40.218;44.486;2023-12-20T12:30:09;89582.16;;;6.65;38.83
82927;BME280;72788;40.218;44.486;2023-12-20T12:32:36;89583.97;;;6.61;39.09
82927;BME280;72788;40.218;44.486;2023-12-20T12:35:05;89577.47;;;6.55;38.97
82927;BME280;72788;40.218;44.486;2023-12-20T12:37:34;89576.66;;;6.51;38.84
82927;BME280;72788;40.218;44.486;2023-12-20T12:40:00;89578.47;;;6.47;39.20
82927;BME280;72788;40.218;44.486;2023-12-20T12:42:26;89578.06;;;6.45;39.49
82927;BME280;72788;40.218;44.486;2023-12-20T12:44:54;89575.84;;;6.47;38.93
82927;BME280;72788;40.218;44.486;2023-12-20T12:47:21;89575.84;;;6.47;39.06
82927;BME280;72788;40.218;44.486;2023-12-20T12:49:49;89573.16;;;6.44;39.28
82927;BME280;72788;40.218;44.486;2023-12-20T12:52:16;89566.75;;;6.41;39.15
82927;BME280;72788;40.218;44.486;2023-12-20T12:54:42;89558.47;;;6.39;39.17
82927;BME280;72788;40.218;44.486;2023-12-20T12:57:10;89562.91;;;6.35;39.46